Decoded Metar for LDSP (SPLIT in CROATIA) (IATA:SPU) | Meteo·Mobile Aviation Weather
aviador You're here:

LDSP Decoded Metar

SPLIT in CROATIA
Report Time2019-07-15 23:30:00
UTC Time2019-07-15 23:57:00
Flight Rules vfr VFR
Wind020° at 05 kt
W.Decomp.*RWY 05: 4.2 kt HW 2.6 kt LCW
Visibility9999 m
Phenomena:N/A
Clouds:N/A
Expected CloudBase > 4,000 ft AGL from Temp-Dew spread
CeilingNone
Temp22°C (ISA +7)
Dew Point12°C (53% RH)
AAT20.8°C
QNH1009 hPa
Density Alt1,224 ft
Elevation69 ft
Report Wrong Elevation
Raw Report
LDSP 152330Z AUTO 02005KT 340V050 CAVOK 22/12 Q1009=

Extra information for LDSP:More info

Metar Taf Metar & Taf Last 4 Metars F.Rules Stats Wind Profile Meteogram Temp Stats Airport Information Weather charts Add Link Nearby VenuesMetar ALERT Operation Metar Decoded Social comments